Weather at Smiths Falls-Montague (Russ Beach) Airport

Public forecast

Using degrees Celsius for public forecast. Weather courtesy of forecast.io.

Closest aviation weather report (METAR) to Smiths Falls-Montague (Russ Beach) Airport

Report is more than 6 hours old.

Closest report is Ottawa Macdonald-Cartier International Airport, 25.4 nm (47.0 km) NNE. Retrieved 2020/10/29 15:00 UTC (13 hours ago):

CYOW 291500Z 02007KT 15SM SCT020 OVC041 05/01 A2990 RMK SC3SC5 SLP131

Closest aviation forecast (TAF) to Smiths Falls-Montague (Russ Beach) Airport

Closest forecast is Ottawa Macdonald-Cartier International Airport, 25.4 nm (47.0 km) NNE. Retrieved 2020-10-30 03:42 UTC (14 minutes ago):

TAF CYOW 300238Z 3003/3024 02015KT P6SM FEW030 BKN050 FM300700 03010KT P6SM SCT040 FM301900 36008KT P6SM FEW030 RMK NXT FCST BY 300600Z